Time;durP1;ratioP1;P1;durP2;ratioP2;P2;SDS_P1;SDS_P2;PMS_P1;PMS_P2;Temp;Humidity;BMP_temperature;BMP_pressure;BME280_temperature;BME280_humidity;BME280_pressure;Samples;Min_cycle;Max_cycle;Signal;HPM_P1;HPM_P2
2022/10/25 13:45:46;;;;;;;7.03;2.33;;;;;;;20.29;45.50;99867.81;4182184;27;20225;-66
2022/10/25 13:47:51;;;;;;;6.67;2.53;;;;;;;20.68;45.24;99873.28;4158741;27;20300;-66
2022/10/25 13:49:52;;;;;;;6.53;2.30;;;;;;;21.18;44.28;99835.31;4177894;27;20681;-67
2022/10/25 13:52:00;;;;;;;7.77;1.90;;;;;;;20.57;44.32;99863.31;4186440;27;20249;-65
2022/10/25 13:54:52;;;;;;;4.90;1.83;;;;;;;21.07;43.48;99856.16;4155790;28;20230;-65
2022/10/25 13:57:46;;;;;;;7.13;2.33;;;;;;;20.95;43.73;99869.88;4179619;27;20234;-67
2022/10/25 14:00:31;;;;;;;8.33;2.30;;;;;;;20.91;44.91;99854.31;4176745;27;20233;-68
2022/10/25 14:03:08;;;;;;;5.93;2.07;;;;;;;20.89;45.34;99857.28;4179296;27;20340;-69
2022/10/25 14:05:53;;;;;;;8.03;2.27;;;;;;;21.22;43.83;99820.13;4185560;27;20264;-67
2022/10/25 14:08:26;;;;;;;2.50;1.87;;;;;;;21.27;44.08;99836.50;4187347;27;20229;-66
2022/10/25 14:10:52;;;;;;;6.10;2.07;;;;;;;21.30;43.85;99840.63;4191257;27;20602;-65
2022/10/25 14:13:29;;;;;;;5.27;2.20;;;;;;;21.27;43.79;99843.84;4184629;27;20224;-67
2022/10/25 14:16:02;;;;;;;7.73;2.10;;;;;;;21.31;44.39;99834.13;4163826;27;20240;-65
2022/10/25 14:18:32;;;;;;;4.67;2.00;;;;;;;20.96;45.22;99833.41;4186474;28;20839;-65
2022/10/25 14:21:01;;;;;;;6.47;2.27;;;;;;;21.32;44.59;99833.84;4178145;27;20860;-66
2022/10/25 14:23:32;;;;;;;6.67;2.10;;;;;;;21.05;44.53;99829.19;4182888;28;20230;-65
2022/10/25 14:25:59;;;;;;;3.50;1.87;;;;;;;21.19;44.02;99834.25;4182697;27;20266;-66
2022/10/25 14:28:28;;;;;;;3.90;2.17;;;;;;;19.67;45.58;99859.63;4187297;28;20212;-67
2022/10/25 14:31:02;;;;;;;5.77;2.37;;;;;;;20.61;44.19;99822.88;4183851;28;20956;-78
2022/10/25 14:33:40;;;;;;;6.53;2.00;;;;;;;20.43;43.21;99829.41;4166885;28;20587;-76
2022/10/25 14:36:21;;;;;;;4.43;1.87;;;;;;;21.27;43.31;99786.72;4165663;28;20242;-66
2022/10/25 14:38:53;;;;;;;2.97;1.43;;;;;;;21.55;42.95;99780.22;4188262;27;20256;-65
2022/10/25 14:41:25;;;;;;;2.93;1.60;;;;;;;20.93;43.89;99812.16;4187532;28;20684;-64
2022/10/25 14:43:52;;;;;;;4.40;1.97;;;;;;;19.51;45.32;99859.31;4175993;28;20236;-68
2022/10/25 14:46:20;;;;;;;4.90;2.10;;;;;;;19.62;45.32;99854.09;4182596;28;20250;-65
2022/10/25 14:48:47;;;;;;;3.87;1.90;;;;;;;20.37;44.29;99817.63;4178530;28;20252;-64
2022/10/25 14:51:20;;;;;;;6.40;1.93;;;;;;;19.65;45.28;99842.78;4184710;28;20209;-65
2022/10/25 14:54:01;;;;;;;6.47;1.77;;;;;;;20.22;44.33;99820.94;4181167;28;20488;-64
2022/10/25 14:56:29;;;;;;;7.03;2.33;;;;;;;21.22;43.61;99769.25;4181651;27;20249;-68
2022/10/25 14:58:55;;;;;;;3.87;1.77;;;;;;;19.78;44.54;99833.50;4168457;28;20937;-77
2022/10/25 15:01:22;;;;;;;6.03;2.10;;;;;;;20.67;44.96;99795.50;4183240;28;20633;-76
2022/10/25 15:03:51;;;;;;;4.50;2.27;;;;;;;21.96;43.37;99759.63;4178054;28;20369;-69
2022/10/25 15:06:20;;;;;;;4.63;2.00;;;;;;;20.25;43.83;99839.47;4180167;28;20282;-69
2022/10/25 15:08:47;;;;;;;5.33;2.00;;;;;;;20.40;44.24;99838.88;4186121;28;20328;-69
2022/10/25 15:11:16;;;;;;;4.00;1.87;;;;;;;20.69;44.17;99831.41;4182348;28;20988;-67
2022/10/25 15:13:44;;;;;;;5.17;1.77;;;;;;;20.02;44.57;99845.84;4186531;28;20205;-66
2022/10/25 15:16:43;;;;;;;4.87;2.07;;;;;;;21.55;42.94;99756.53;4183735;28;20278;-66
2022/10/25 15:19:08;;;;;;;5.20;1.80;;;;;;;21.69;42.58;99780.59;4183937;28;20274;-66
2022/10/25 15:21:38;;;;;;;5.63;2.33;;;;;;;21.55;43.31;99791.09;4184513;28;20233;-68
2022/10/25 15:24:27;;;;;;;6.00;2.13;;;;;;;22.28;42.42;99772.34;4173210;28;20876;-67
2022/10/25 15:26:52;;;;;;;9.13;2.67;;;;;;;22.50;41.82;99763.19;4183217;28;21086;-68
2022/10/25 15:29:40;;;;;;;8.20;4.13;;;;;;;20.89;44.42;99815.66;4180563;28;20229;-66
2022/10/25 15:32:12;;;;;;;9.90;4.27;;;;;;;22.40;42.42;99744.06;3272583;28;10000857;-67
2022/10/25 15:34:38;;;;;;;8.13;3.80;;;;;;;20.82;44.70;99819.38;4182859;28;20641;-68
2022/10/25 15:37:03;;;;;;;11.50;3.90;;;;;;;21.14;44.29;99807.81;4181528;28;20220;-71
2022/10/25 15:39:31;;;;;;;8.17;3.20;;;;;;;21.38;43.95;99783.06;4188503;28;20229;-67
2022/10/25 15:41:56;;;;;;;5.57;3.13;;;;;;;21.07;44.83;99800.91;4183811;28;20232;-68
2022/10/25 15:44:22;;;;;;;6.63;3.07;;;;;;;21.31;43.92;99769.63;4174457;28;20647;-66
2022/10/25 15:46:49;;;;;;;6.27;2.40;;;;;;;21.24;44.14;99772.53;4183724;28;20200;-66
2022/10/25 15:49:15;;;;;;;6.70;2.97;;;;;;;20.75;44.94;99786.09;4180273;27;20237;-67
2022/10/25 15:51:43;;;;;;;3.60;2.00;;;;;;;21.81;43.10;99751.28;4178681;27;20394;-64
2022/10/25 15:54:20;;;;;;;6.03;2.40;;;;;;;21.82;42.56;99743.97;4184128;27;20209;-66
2022/10/25 15:56:47;;;;;;;4.90;2.93;;;;;;;21.70;42.89;99764.00;4170432;28;21436;-66
2022/10/25 15:59:13;;;;;;;7.23;2.97;;;;;;;21.82;42.78;99754.84;4183442;27;20809;-67
2022/10/25 16:01:44;;;;;;;6.33;2.40;;;;;;;21.87;42.13;99773.94;4188588;27;20961;-66
2022/10/25 16:04:15;;;;;;;3.63;2.83;;;;;;;20.30;44.84;99804.22;4182938;27;20920;-65
2022/10/25 16:06:42;;;;;;;6.07;2.90;;;;;;;19.13;46.52;99833.63;4188193;27;20239;-76
2022/10/25 16:09:08;;;;;;;6.07;2.40;;;;;;;20.65;44.68;99772.38;4186038;27;20353;-73
2022/10/25 16:11:37;;;;;;;6.00;2.67;;;;;;;21.86;42.47;99718.63;4188874;27;20209;-70
2022/10/25 16:14:03;;;;;;;6.90;2.50;;;;;;;21.82;42.91;99760.31;4183527;27;20233;-73
2022/10/25 16:16:30;;;;;;;7.60;2.57;;;;;;;20.38;44.36;99813.03;4177322;27;20208;-62
2022/10/25 16:18:56;;;;;;;4.80;2.17;;;;;;;21.59;42.79;99735.88;4177519;27;20288;-63
2022/10/25 16:21:21;;;;;;;5.40;2.30;;;;;;;21.84;42.74;99739.88;4182459;28;20213;-63
2022/10/25 16:23:48;;;;;;;9.83;3.17;;;;;;;21.29;43.12;99779.94;4180895;27;20218;-65
2022/10/25 16:26:39;;;;;;;6.43;3.10;;;;;;;21.52;42.76;99748.88;4187127;28;20218;-66
2022/10/25 16:29:05;;;;;;;5.90;2.50;;;;;;;21.03;43.68;99790.53;4168740;28;20318;-65
2022/10/25 16:31:31;;;;;;;8.40;2.70;;;;;;;21.52;42.99;99759.75;4185120;27;20271;-65
2022/10/25 16:33:58;;;;;;;7.10;2.60;;;;;;;21.33;42.81;99759.28;4185952;27;20217;-65
2022/10/25 16:36:23;;;;;;;17.73;11.67;;;;;;;20.76;43.97;99785.00;4183941;27;20210;-64
2022/10/25 16:38:50;;;;;;;9.63;6.13;;;;;;;21.64;42.29;99739.72;4186068;27;20229;-71
2022/10/25 16:41:22;;;;;;;5.73;2.90;;;;;;;21.02;43.15;99780.75;4187872;28;20197;-70
2022/10/25 16:43:48;;;;;;;9.50;3.93;;;;;;;21.85;42.29;99724.38;4186126;27;20235;-69
2022/10/25 16:46:13;;;;;;;8.03;2.93;;;;;;;20.84;43.38;99772.91;4184832;27;20244;-72
2022/10/25 16:48:40;;;;;;;6.20;2.50;;;;;;;20.17;44.83;99774.69;4190563;27;20229;-70
2022/10/25 16:51:11;;;;;;;5.40;2.17;;;;;;;18.84;46.45;99783.91;4182372;28;20209;-67
2022/10/25 16:53:36;;;;;;;6.63;2.80;;;;;;;19.23;47.04;99799.63;4176112;28;20211;-70
2022/10/25 16:56:03;;;;;;;7.43;2.30;;;;;;;18.59;48.05;99784.19;4185712;27;20204;-66
2022/10/25 16:58:29;;;;;;;4.47;1.90;;;;;;;18.87;47.78;99766.38;4179719;28;20324;-64
2022/10/25 17:00:57;;;;;;;5.07;2.87;;;;;;;19.69;46.36;99746.22;4182650;27;20237;-65
2022/10/25 17:03:23;;;;;;;7.63;3.70;;;;;;;19.62;46.60;99743.66;4181454;27;20241;-66
2022/10/25 17:05:52;;;;;;;7.37;3.33;;;;;;;19.70;46.72;99732.38;4179089;27;20247;-65
2022/10/25 17:08:17;;;;;;;6.00;3.00;;;;;;;21.03;44.49;99670.03;4173863;27;20704;-67
2022/10/25 17:10:43;;;;;;;8.13;2.80;;;;;;;21.55;43.66;99668.59;4181938;27;20621;-69
2022/10/25 17:13:13;;;;;;;7.90;3.40;;;;;;;20.30;44.63;99768.09;4186957;27;20314;-69
2022/10/25 17:15:41;;;;;;;7.13;3.50;;;;;;;19.84;46.34;99780.91;4184733;27;20245;-66
2022/10/25 17:18:07;;;;;;;7.60;4.00;;;;;;;20.67;44.84;99732.16;4188095;27;20248;-67
2022/10/25 17:20:34;;;;;;;6.57;3.40;;;;;;;20.35;45.41;99757.28;4177568;27;20712;-69
2022/10/25 17:23:00;;;;;;;6.53;2.93;;;;;;;20.89;44.07;99728.66;4187788;27;20254;-70
2022/10/25 17:25:26;;;;;;;7.57;2.60;;;;;;;21.14;43.15;99709.03;4175817;27;20240;-69
2022/10/25 17:27:52;;;;;;;5.20;2.10;;;;;;;20.71;43.84;99762.38;4185364;27;20322;-68
2022/10/25 17:30:19;;;;;;;6.80;1.87;;;;;;;20.31;44.52;99767.84;4181167;27;20265;-68
2022/10/25 17:32:45;;;;;;;5.30;2.10;;;;;;;20.64;43.84;99757.13;4187403;27;20319;-67
2022/10/25 17:35:11;;;;;;;3.90;2.10;;;;;;;20.75;44.11;99750.75;4184947;27;20383;-66
2022/10/25 17:37:42;;;;;;;6.23;2.27;;;;;;;20.78;43.85;99754.88;4186267;27;20277;-66
2022/10/25 17:40:10;;;;;;;7.87;2.60;;;;;;;20.72;43.37;99761.31;4182923;27;20233;-66
2022/10/25 17:42:36;;;;;;;5.83;2.40;;;;;;;20.87;43.78;99750.66;4187905;27;20236;-66
2022/10/25 17:45:02;;;;;;;5.53;2.20;;;;;;;20.56;43.78;99768.44;4146153;28;20264;-65
2022/10/25 17:47:29;;;;;;;6.73;2.23;;;;;;;20.92;43.57;99741.72;4185620;27;20316;-62
2022/10/25 17:49:59;;;;;;;5.87;2.00;;;;;;;20.22;44.77;99790.25;4183336;27;20366;-66
2022/10/25 17:52:25;;;;;;;4.53;2.50;;;;;;;20.53;44.17;99760.78;4154930;28;20272;-65
2022/10/25 17:54:50;;;;;;;7.67;2.63;;;;;;;20.94;44.04;99754.00;4141498;28;20233;-65
2022/10/25 17:57:16;;;;;;;3.67;2.50;;;;;;;20.28;44.49;99775.69;4186144;27;20225;-66
2022/10/25 17:59:42;;;;;;;10.10;3.03;;;;;;;20.34;44.58;99773.84;4178531;28;20322;-66
2022/10/25 18:02:09;;;;;;;9.13;2.90;;;;;;;20.27;45.07;99777.56;4175369;27;20335;-70
2022/10/25 18:04:34;;;;;;;9.20;3.20;;;;;;;20.43;44.47;99759.59;4195054;27;20346;-70
2022/10/25 18:06:59;;;;;;;5.20;2.77;;;;;;;21.01;43.93;99719.25;4166235;27;20642;-69
2022/10/25 18:09:03;;;;;;;9.00;3.20;;;;;;;20.61;44.15;99760.34;4187030;27;21278;-66
2022/10/25 18:11:20;;;;;;;8.23;3.10;;;;;;;21.04;43.96;99743.22;4178793;27;20301;-66
2022/10/25 18:13:23;;;;;;;5.30;2.93;;;;;;;20.72;44.10;99764.03;4163153;28;20239;-67
2022/10/25 18:15:25;;;;;;;5.23;2.67;;;;;;;20.66;44.14;99765.84;4178219;28;20205;-64
2022/10/25 18:17:27;;;;;;;7.60;2.60;;;;;;;20.80;43.93;99771.75;4190055;27;20206;-66
2022/10/25 18:19:28;;;;;;;4.60;2.80;;;;;;;20.83;44.46;99779.41;4201510;27;20237;-64
2022/10/25 18:21:31;;;;;;;8.23;3.03;;;;;;;20.66;44.17;99772.09;4193680;27;20602;-63
2022/10/25 18:23:34;;;;;;;6.80;2.90;;;;;;;20.68;44.60;99789.00;4190959;27;20311;-65
2022/10/25 18:25:35;;;;;;;7.83;2.60;;;;;;;20.67;44.36;99771.03;4167237;28;20943;-66
2022/10/25 18:27:37;;;;;;;8.53;2.80;;;;;;;20.81;44.48;99773.41;4178784;27;20242;-63
2022/10/25 18:29:39;;;;;;;4.57;2.60;;;;;;;20.87;44.15;99747.94;4179431;27;20237;-63
2022/10/25 18:31:40;;;;;;;8.00;2.60;;;;;;;20.84;44.13;99768.28;4182160;27;20238;-67
2022/10/25 18:33:42;;;;;;;6.60;2.70;;;;;;;20.48;44.43;99786.00;4189696;27;20722;-65
2022/10/25 18:35:44;;;;;;;7.70;3.30;;;;;;;20.71;44.37;99773.25;4182251;27;20234;-68
2022/10/25 18:37:46;;;;;;;6.50;3.00;;;;;;;20.66;44.41;99771.28;4188400;27;20230;-69
2022/10/25 18:39:49;;;;;;;7.67;3.00;;;;;;;20.17;44.92;99779.31;4210229;27;20238;-64
2022/10/25 18:41:51;;;;;;;5.43;2.63;;;;;;;20.17;45.34;99790.16;4191265;27;20559;-65
2022/10/25 18:43:55;;;;;;;7.33;2.97;;;;;;;20.23;44.90;99773.69;4187214;27;20238;-65
2022/10/25 18:45:58;;;;;;;9.93;2.70;;;;;;;20.21;45.06;99780.44;4184303;27;20229;-66
2022/10/25 18:47:59;;;;;;;5.50;3.10;;;;;;;20.18;45.21;99775.53;4183062;27;20993;-65
2022/10/25 18:50:01;;;;;;;8.47;2.73;;;;;;;20.44;44.85;99757.69;4180109;28;20230;-65
2022/10/25 18:52:03;;;;;;;5.80;2.70;;;;;;;20.22;44.73;99758.47;4173395;28;20233;-66
2022/10/25 18:54:05;;;;;;;4.10;2.57;;;;;;;20.02;45.41;99774.44;4167546;28;20772;-67
2022/10/25 18:56:08;;;;;;;7.70;3.07;;;;;;;18.90;46.53;99776.72;4189397;28;20283;-67
2022/10/25 18:58:10;;;;;;;5.90;2.83;;;;;;;19.22;46.78;99771.69;4191773;28;20895;-67
2022/10/25 19:00:12;;;;;;;8.43;2.83;;;;;;;19.29;46.49;99752.56;4187221;28;20228;-66
2022/10/25 19:02:14;;;;;;;4.27;2.27;;;;;;;20.32;44.93;99711.59;4210112;28;20340;-67
2022/10/25 19:04:16;;;;;;;6.73;2.77;;;;;;;20.09;45.04;99745.19;4186290;28;20767;-68
2022/10/25 19:06:18;;;;;;;4.43;2.60;;;;;;;18.81;46.53;99766.25;4191170;28;20298;-67
2022/10/25 19:08:19;;;;;;;6.43;2.60;;;;;;;17.62;48.63;99771.88;4188055;28;20221;-67
2022/10/25 19:10:22;;;;;;;6.87;3.03;;;;;;;17.48;49.18;99763.13;4191277;28;20810;-66
2022/10/25 19:12:23;;;;;;;4.10;2.57;;;;;;;18.09;48.15;99748.41;4188660;28;20234;-66
2022/10/25 19:14:25;;;;;;;6.57;3.40;;;;;;;18.70;47.25;99707.47;4191000;28;20242;-67
2022/10/25 19:16:26;;;;;;;7.83;3.30;;;;;;;18.36;47.83;99742.53;4186037;28;20262;-67
2022/10/25 19:18:29;;;;;;;7.73;3.80;;;;;;;17.48;49.15;99755.03;4190375;28;20936;-66
2022/10/25 19:20:31;;;;;;;6.50;3.07;;;;;;;17.82;48.97;99739.94;4182797;28;20229;-63
2022/10/25 19:22:32;;;;;;;7.17;3.50;;;;;;;17.47;49.85;99742.53;4185859;28;20263;-64
2022/10/25 19:24:36;;;;;;;7.53;4.10;;;;;;;18.32;48.22;99735.13;4191193;27;20238;-66
2022/10/25 19:26:38;;;;;;;9.30;4.37;;;;;;;19.05;47.17;99709.28;4173133;28;20235;-66
2022/10/25 19:28:39;;;;;;;12.73;6.43;;;;;;;19.71;46.23;99671.59;4196620;27;20733;-66
2022/10/25 19:30:41;;;;;;;17.60;7.73;;;;;;;17.98;48.47;99765.47;4193640;27;20242;-67
2022/10/25 19:32:42;;;;;;;13.27;7.60;;;;;;;17.27;50.55;99770.69;4197983;27;20878;-66
2022/10/25 19:34:44;;;;;;;14.90;8.03;;;;;;;17.33;50.73;99760.84;4195184;28;20238;-67
2022/10/25 19:36:47;;;;;;;10.57;6.60;;;;;;;17.38;50.71;99754.72;4190208;28;20315;-66
2022/10/25 19:38:48;;;;;;;9.33;6.40;;;;;;;18.57;48.54;99699.63;4176286;28;20788;-66
2022/10/25 19:40:50;;;;;;;11.13;6.43;;;;;;;17.09;50.33;99757.22;4191786;27;20419;-68
2022/10/25 19:42:52;;;;;;;12.67;6.47;;;;;;;16.64;51.50;99752.97;4202676;27;20253;-65
2022/10/25 19:44:53;;;;;;;12.30;7.57;;;;;;;16.81;51.62;99747.78;4196349;27;20226;-65
2022/10/25 19:46:55;;;;;;;13.13;7.13;;;;;;;16.49;52.05;99739.84;4195936;27;20230;-64
2022/10/25 19:48:59;;;;;;;9.40;5.47;;;;;;;16.03;52.73;99728.44;4192790;28;20893;-65
2022/10/25 19:51:05;;;;;;;11.03;4.50;;;;;;;17.16;51.25;99688.50;4172306;28;20345;-65
2022/10/25 19:53:07;;;;;;;9.57;4.83;;;;;;;17.17;51.23;99689.31;4185600;28;21032;-65
2022/10/25 19:55:08;;;;;;;8.27;4.30;;;;;;;18.93;47.73;99656.97;4187545;28;20422;-65
2022/10/25 19:57:10;;;;;;;10.30;4.40;;;;;;;17.49;50.43;99743.13;4181624;27;20242;-64
2022/10/25 19:59:12;;;;;;;9.63;4.13;;;;;;;18.33;49.10;99678.00;4173637;28;20233;-66
2022/10/25 20:01:15;;;;;;;8.57;3.47;;;;;;;17.21;51.00;99746.44;4215760;27;20232;-64
2022/10/25 20:03:17;;;;;;;8.50;4.03;;;;;;;16.91;51.48;99741.84;4206986;28;20834;-67
2022/10/25 20:05:18;;;;;;;7.00;3.63;;;;;;;16.57;51.66;99733.31;4189705;27;20232;-64
2022/10/25 20:07:20;;;;;;;7.30;3.80;;;;;;;16.96;51.03;99723.09;4177510;28;20320;-64
2022/10/25 20:09:21;;;;;;;7.10;3.80;;;;;;;17.33;50.22;99701.34;4173403;28;20248;-65
2022/10/25 20:11:25;;;;;;;7.83;3.77;;;;;;;17.28;50.15;99706.63;4186069;28;20237;-66
2022/10/25 20:13:27;;;;;;;8.03;3.60;;;;;;;16.69;50.98;99742.31;4188676;28;20236;-65
2022/10/25 20:15:28;;;;;;;5.57;4.03;;;;;;;16.04;52.57;99732.78;4189092;28;20213;-65
2022/10/25 20:17:31;;;;;;;6.17;3.30;;;;;;;16.49;52.16;99712.00;4194330;27;20222;-60
2022/10/25 20:19:33;;;;;;;6.30;3.60;;;;;;;16.56;51.75;99710.03;4200675;28;20333;-65
2022/10/25 20:21:35;;;;;;;9.93;3.67;;;;;;;16.70;51.32;99711.56;4214302;27;20308;-66
2022/10/25 20:23:38;;;;;;;5.53;3.20;;;;;;;16.28;52.22;99727.59;4194385;27;20233;-64
2022/10/25 20:25:40;;;;;;;7.50;3.50;;;;;;;15.80;52.52;99726.34;4188528;27;20570;-65
2022/10/25 20:27:42;;;;;;;8.50;3.57;;;;;;;15.26;54.27;99717.78;4178237;28;20244;-65
2022/10/25 20:29:46;;;;;;;5.60;3.80;;;;;;;16.09;52.74;99699.72;4159934;28;20724;-66
2022/10/25 20:31:49;;;;;;;10.47;3.30;;;;;;;16.58;51.49;99689.03;4184467;28;20222;-65
2022/10/25 20:33:51;;;;;;;7.53;3.23;;;;;;;17.66;49.75;99671.09;4185628;28;20229;-65
2022/10/25 20:35:53;;;;;;;6.60;3.77;;;;;;;16.50;51.42;99730.69;4180283;27;20252;-64
2022/10/25 20:37:55;;;;;;;5.37;3.70;;;;;;;15.95;52.81;99736.00;4186922;27;20226;-64
2022/10/25 20:39:56;;;;;;;8.17;3.70;;;;;;;16.13;52.43;99727.09;4184072;28;20288;-65
2022/10/25 20:41:58;;;;;;;8.80;3.70;;;;;;;17.30;51.04;99650.44;4192789;28;20249;-66
2022/10/25 20:44:02;;;;;;;9.83;4.07;;;;;;;16.71;51.08;99729.38;4189486;27;20736;-64
2022/10/25 20:46:05;;;;;;;8.37;4.60;;;;;;;17.08;51.01;99698.81;4174856;28;20226;-64
2022/10/25 20:48:08;;;;;;;7.37;3.50;;;;;;;16.92;50.63;99748.88;4184292;27;20740;-65
2022/10/25 20:50:10;;;;;;;7.37;3.93;;;;;;;16.43;52.08;99732.63;4189205;27;20261;-65
2022/10/25 20:52:11;;;;;;;6.13;3.20;;;;;;;16.66;51.84;99714.91;4187010;28;20230;-64
2022/10/25 20:54:13;;;;;;;8.07;4.10;;;;;;;15.31;53.82;99749.50;4189953;27;20238;-65
2022/10/25 20:56:16;;;;;;;9.77;4.77;;;;;;;14.73;54.50;99740.44;4186806;27;20223;-64
2022/10/25 20:58:20;;;;;;;7.87;4.47;;;;;;;15.92;53.23;99709.44;4195324;27;20252;-64
2022/10/25 21:00:22;;;;;;;8.17;4.07;;;;;;;16.35;51.75;99717.56;4219652;28;20229;-65
2022/10/25 21:02:23;;;;;;;9.87;4.00;;;;;;;16.62;51.47;99704.56;4175993;28;20226;-65
2022/10/25 21:04:25;;;;;;;8.03;4.63;;;;;;;16.85;50.67;99726.53;4176542;27;20706;-64
2022/10/25 21:06:47;;;;;;;8.70;3.97;;;;;;;16.62;51.63;99728.88;4190880;27;20297;-66
2022/10/25 21:08:49;;;;;;;11.07;4.20;;;;;;;17.08;50.28;99710.44;4191459;28;20233;-65
2022/10/25 21:10:59;;;;;;;6.70;4.00;;;;;;;17.25;50.02;99686.28;4186465;28;20535;-66
2022/10/25 21:13:01;;;;;;;7.13;3.73;;;;;;;17.00;50.36;99718.88;4188377;27;20229;-64
2022/10/25 21:15:03;;;;;;;8.10;3.93;;;;;;;15.63;52.57;99766.53;4191276;27;20234;-64
2022/10/25 21:17:09;;;;;;;8.27;3.63;;;;;;;15.79;53.12;99742.75;4182991;27;20727;-64
2022/10/25 21:19:11;;;;;;;8.00;4.47;;;;;;;15.77;53.18;99740.28;4187171;27;20239;-66
2022/10/25 21:21:17;;;;;;;7.07;4.23;;;;;;;15.96;52.85;99687.19;4183184;28;20242;-65
2022/10/25 21:23:19;;;;;;;7.70;3.70;;;;;;;15.55;53.02;99704.75;4180859;28;20223;-65
2022/10/25 21:25:21;;;;;;;10.90;4.50;;;;;;;15.16;53.77;99697.75;4187833;28;20232;-64
2022/10/25 21:27:22;;;;;;;7.43;3.80;;;;;;;16.39;51.43;99656.63;4194495;27;20236;-67
2022/10/25 21:29:24;;;;;;;4.80;3.40;;;;;;;15.93;51.95;99698.44;4193780;27;20260;-66
2022/10/25 21:31:25;;;;;;;8.43;4.00;;;;;;;15.11;53.83;99710.00;4190696;27;20238;-65
2022/10/25 21:33:27;;;;;;;9.47;4.47;;;;;;;15.61;53.22;99698.50;4191650;27;20229;-64
2022/10/25 21:35:29;;;;;;;10.77;5.07;;;;;;;14.79;54.92;99711.81;4179339;28;21010;-65
2022/10/25 21:37:30;;;;;;;6.53;4.40;;;;;;;14.62;55.39;99716.03;4181912;27;20214;-64
2022/10/25 21:39:32;;;;;;;9.57;4.90;;;;;;;14.39;55.85;99714.63;4189697;28;20236;-65
2022/10/25 21:41:33;;;;;;;9.07;4.37;;;;;;;14.44;56.10;99703.22;4191895;27;20224;-65
2022/10/25 21:43:39;;;;;;;7.83;4.20;;;;;;;14.81;55.02;99681.97;4187729;28;20230;-65
2022/10/25 21:45:41;;;;;;;8.43;4.77;;;;;;;14.67;55.28;99683.91;4212798;27;20207;-66
2022/10/25 21:47:42;;;;;;;9.73;5.30;;;;;;;13.92;56.39;99706.63;4180251;28;20863;-66
2022/10/25 21:49:44;;;;;;;7.47;3.87;;;;;;;14.50;56.22;99675.47;4190052;27;20226;-65
2022/10/25 21:51:45;;;;;;;12.30;4.80;;;;;;;16.02;53.28;99635.00;4185294;27;20237;-64
2022/10/25 21:53:47;;;;;;;9.93;4.30;;;;;;;14.68;54.78;99716.00;4175977;27;20834;-65
2022/10/25 21:55:49;;;;;;;9.27;4.40;;;;;;;14.19;55.61;99715.53;4169318;28;20892;-64
2022/10/25 21:57:50;;;;;;;8.33;4.37;;;;;;;14.11;56.31;99713.06;4192147;27;20840;-66
2022/10/25 21:59:55;;;;;;;5.17;3.70;;;;;;;14.53;55.75;99683.13;4192306;27;20622;-65
2022/10/25 22:01:56;;;;;;;8.00;3.97;;;;;;;14.17;56.27;99714.06;4182576;27;20253;-66
2022/10/25 22:03:58;;;;;;;7.73;3.70;;;;;;;14.67;55.53;99689.28;4177745;28;20272;-65
2022/10/25 22:06:00;;;;;;;9.60;4.17;;;;;;;14.77;55.50;99681.56;4213354;27;20240;-65
2022/10/25 22:08:01;;;;;;;9.50;3.90;;;;;;;15.20;55.12;99651.28;4195374;27;20218;-64
2022/10/25 22:10:03;;;;;;;7.47;3.73;;;;;;;15.69;53.57;99662.34;4186917;28;20233;-65
2022/10/25 22:12:05;;;;;;;8.77;4.00;;;;;;;14.28;55.71;99739.53;4188127;28;20230;-65
2022/10/25 22:14:12;;;;;;;10.27;4.10;;;;;;;14.04;56.78;99720.28;4166935;28;20234;-66
2022/10/25 22:16:16;;;;;;;9.67;4.27;;;;;;;13.76;57.34;99728.56;4185267;28;20724;-65
2022/10/25 22:18:18;;;;;;;8.97;4.43;;;;;;;13.70;58.11;99713.25;4194439;27;20232;-64
2022/10/25 22:20:19;;;;;;;8.67;4.37;;;;;;;14.11;57.11;99679.94;4185260;28;20240;-64
2022/10/25 22:22:21;;;;;;;10.23;4.20;;;;;;;14.67;56.02;99640.81;4189516;28;20248;-65
2022/10/25 22:24:23;;;;;;;9.83;4.37;;;;;;;14.50;56.53;99660.13;4186322;28;20251;-65
2022/10/25 22:26:24;;;;;;;7.90;4.00;;;;;;;14.49;56.01;99668.44;4204204;27;20243;-66
2022/10/25 22:28:26;;;;;;;9.83;4.57;;;;;;;14.56;55.79;99659.28;4209820;28;20315;-64
2022/10/25 22:30:28;;;;;;;6.17;4.10;;;;;;;14.65;55.26;99683.28;4191921;27;20242;-65
2022/10/25 22:32:29;;;;;;;8.20;3.93;;;;;;;15.49;54.53;99639.03;4185376;28;20230;-65
2022/10/25 22:34:31;;;;;;;9.93;4.80;;;;;;;14.51;55.11;99723.72;4183803;27;20225;-64
2022/10/25 22:36:35;;;;;;;15.57;4.30;;;;;;;15.03;54.65;99686.03;4186033;28;20233;-61
2022/10/25 22:38:37;;;;;;;9.77;4.33;;;;;;;15.69;53.69;99662.34;4176987;28;20248;-66
2022/10/25 22:40:38;;;;;;;7.13;4.07;;;;;;;16.36;52.07;99658.97;4184622;28;20244;-66
2022/10/25 22:42:40;;;;;;;6.97;4.00;;;;;;;16.26;52.44;99648.69;4186120;27;20238;-65
2022/10/25 22:44:41;;;;;;;9.03;4.20;;;;;;;14.54;55.61;99730.53;4181258;28;20267;-65
2022/10/25 22:46:43;;;;;;;9.43;4.53;;;;;;;14.33;55.86;99721.69;4216348;28;20241;-65
2022/10/25 22:48:45;;;;;;;9.93;4.77;;;;;;;14.95;55.06;99678.19;4199963;28;20231;-64
2022/10/25 22:50:51;;;;;;;6.60;4.43;;;;;;;15.50;54.22;99646.09;4171245;28;20234;-64
2022/10/25 22:52:53;;;;;;;11.80;4.27;;;;;;;15.90;52.51;99703.44;4189503;28;20241;-65
2022/10/25 22:54:54;;;;;;;12.43;4.30;;;;;;;14.54;55.34;99744.84;4185591;28;21022;-64
2022/10/25 22:56:56;;;;;;;8.00;4.50;;;;;;;16.22;53.34;99652.88;4188490;28;20237;-64
2022/10/25 22:59:00;;;;;;;7.93;4.30;;;;;;;17.26;50.58;99666.31;4177899;28;20615;-65
2022/10/25 23:01:07;;;;;;;6.90;3.90;;;;;;;17.36;50.25;99685.47;4176623;28;20251;-65
2022/10/25 23:03:09;;;;;;;5.97;3.83;;;;;;;17.99;49.16;99676.97;4183395;28;20265;-66
2022/10/25 23:05:10;;;;;;;5.80;3.93;;;;;;;18.80;46.83;99660.78;4192470;28;20230;-65
2022/10/25 23:07:12;;;;;;;9.87;4.73;;;;;;;17.25;49.74;99766.56;4201776;28;20709;-66
2022/10/25 23:09:14;;;;;;;7.47;4.30;;;;;;;15.28;53.00;99798.44;4216061;28;20275;-66
2022/10/25 23:11:18;;;;;;;12.03;4.23;;;;;;;15.76;53.33;99784.50;4189541;28;20934;-66
2022/10/25 23:13:20;;;;;;;9.10;4.40;;;;;;;15.45;54.01;99774.50;4187080;28;20249;-64
2022/10/25 23:15:22;;;;;;;7.93;4.40;;;;;;;15.31;53.93;99762.97;4193811;28;20824;-65
2022/10/25 23:17:23;;;;;;;9.07;3.97;;;;;;;16.01;52.95;99713.50;4185903;28;20242;-65
2022/10/25 23:19:25;;;;;;;5.37;3.97;;;;;;;15.59;53.20;99773.41;4178268;28;20249;-65
2022/10/25 23:21:28;;;;;;;7.03;4.03;;;;;;;15.45;53.92;99761.00;4191591;28;20225;-66
2022/10/25 23:23:36;;;;;;;6.13;3.70;;;;;;;15.41;53.62;99757.94;4196224;28;20265;-64
2022/10/25 23:25:38;;;;;;;9.20;4.50;;;;;;;15.27;54.36;99757.19;4174130;28;20244;-65
2022/10/25 23:27:40;;;;;;;6.67;4.70;;;;;;;14.90;54.97;99764.22;4183078;28;20205;-66
2022/10/25 23:29:41;;;;;;;10.20;5.00;;;;;;;14.78;55.09;99751.38;4204313;28;20226;-65
2022/10/25 23:31:43;;;;;;;7.20;5.13;;;;;;;16.66;51.93;99674.41;4207156;28;20732;-64
2022/10/25 23:33:48;;;;;;;9.50;4.57;;;;;;;15.75;53.18;99761.25;4189691;28;20292;-66
2022/10/25 23:35:50;;;;;;;7.60;4.00;;;;;;;16.14;52.80;99712.56;4172566;28;20261;-64
2022/10/25 23:37:51;;;;;;;7.70;4.40;;;;;;;14.90;55.13;99780.38;4175979;28;20260;-65
2022/10/25 23:39:53;;;;;;;7.80;4.37;;;;;;;14.81;55.31;99768.97;4189965;28;20233;-66
2022/10/25 23:41:55;;;;;;;6.97;3.97;;;;;;;15.43;54.69;99725.38;4180983;28;20231;-66
2022/10/25 23:43:57;;;;;;;7.73;4.07;;;;;;;15.70;53.40;99740.31;4179950;28;20678;-65
2022/10/25 23:45:59;;;;;;;8.00;4.47;;;;;;;15.86;52.92;99741.66;4175925;28;20230;-66
2022/10/25 23:48:00;;;;;;;8.43;4.00;;;;;;;15.06;54.14;99784.47;4190677;28;20237;-65
2022/10/25 23:50:02;;;;;;;11.40;5.07;;;;;;;14.59;55.50;99784.59;4187489;28;20230;-64
2022/10/25 23:52:04;;;;;;;10.00;4.53;;;;;;;14.94;54.70;99762.75;4175977;28;20305;-66
2022/10/25 23:54:08;;;;;;;10.30;4.40;;;;;;;14.66;55.44;99769.25;4211668;28;20238;-66
2022/10/25 23:56:11;;;;;;;6.67;4.00;;;;;;;14.59;55.60;99757.66;4187230;28;20257;-66
2022/10/25 23:58:13;;;;;;;7.43;4.60;;;;;;;14.69;55.12;99755.34;4182356;28;20221;-66
